Isaar, Wisconsin
Current Conditions -  °F | °C
As of 11:53 AM on Thursday 29 Jan 2015 (Local Time) from KGRB Reporting Station
Overcast Overcast  
Wind Chill: 23°   Ceiling: 2500
Heat Index: 33°   Visibility: 10mi
Dew Point: 25°   Wind: 15mph
Humidity: 72%   Direction: 330°NNW
Pressure: 29.92"   Gusts: NA
Location:  44.5116°N, 88.3076°W
Report Text: KGRB 291753Z 33013KT 10SM OVC025 01/M04 A2992 RMK AO2 SLP141 T00061039 10006 21011 51020
Loading
Personal Weather Stations






























Interactive Weather Map New forecast layout! Learn more

10-Day Weather Forecast

Advertisements
Track Severe Weather on mobile